createdAt,value
2023-09-27T00:01:03.009Z,7.15
2023-09-27T00:03:31.252Z,6.82
2023-09-27T00:06:00.948Z,7.88
2023-09-27T00:08:29.344Z,6.75
2023-09-27T00:10:58.192Z,8.52
2023-09-27T00:13:26.516Z,10.20
2023-09-27T00:15:54.781Z,7.70
2023-09-27T00:18:23.059Z,8.65
2023-09-27T00:20:51.325Z,8.25
2023-09-27T00:23:20.983Z,9.20
2023-09-27T00:25:49.890Z,9.50
2023-09-27T00:28:18.190Z,9.18
2023-09-27T00:30:46.396Z,8.63
2023-09-27T00:33:14.658Z,7.80
2023-09-27T00:35:42.887Z,8.65
2023-09-27T00:38:11.804Z,8.90
2023-09-27T00:40:47.948Z,8.60
2023-09-27T00:43:29.109Z,10.90
2023-09-27T00:45:59.617Z,13.13
2023-09-27T00:48:28.091Z,8.97
2023-09-27T00:50:57.464Z,8.95
2023-09-27T00:53:26.515Z,11.53
2023-09-27T00:55:57.055Z,8.70
2023-09-27T00:58:26.398Z,9.55
2023-09-27T01:00:55.153Z,9.25
2023-09-27T01:03:23.400Z,7.68
2023-09-27T01:05:51.662Z,9.73
2023-09-27T01:08:20.003Z,8.85
2023-09-27T01:10:48.490Z,11.18
2023-09-27T01:13:18.353Z,7.97
2023-09-27T01:15:46.587Z,9.47
2023-09-27T01:18:14.857Z,10.13
2023-09-27T01:20:43.165Z,8.05
2023-09-27T01:23:12.739Z,8.32
2023-09-27T01:25:41.452Z,8.68
2023-09-27T01:28:10.843Z,10.68
2023-09-27T01:30:39.856Z,8.77
2023-09-27T01:33:09.359Z,10.80
2023-09-27T01:35:38.258Z,12.60
2023-09-27T01:38:06.823Z,9.27
2023-09-27T01:40:37.458Z,8.37
2023-09-27T01:43:06.165Z,9.07
2023-09-27T01:45:34.740Z,10.33
2023-09-27T01:48:03.413Z,10.23
2023-09-27T01:50:33.560Z,8.43
2023-09-27T01:53:02.432Z,9.30
2023-09-27T01:55:30.655Z,10.97
2023-09-27T01:58:00.232Z,11.27
2023-09-27T02:00:28.931Z,9.63
2023-09-27T02:02:57.962Z,10.73
2023-09-27T02:05:26.832Z,12.97
2023-09-27T02:07:55.251Z,9.48
2023-09-27T02:10:23.727Z,9.93
2023-09-27T02:12:51.947Z,11.67
2023-09-27T02:15:21.474Z,11.13
2023-09-27T02:17:49.921Z,9.10
2023-09-27T02:20:19.415Z,8.65
2023-09-27T02:22:48.993Z,11.40
2023-09-27T02:25:17.598Z,8.83
2023-09-27T02:27:46.130Z,11.67
2023-09-27T02:30:15.572Z,10.77
2023-09-27T02:32:46.416Z,11.20
2023-09-27T02:35:15.574Z,10.47
2023-09-27T02:37:45.479Z,11.07
2023-09-27T02:40:14.785Z,10.53
2023-09-27T02:42:43.992Z,11.77
2023-09-27T02:45:12.813Z,11.93
2023-09-27T02:47:41.530Z,12.57
2023-09-27T02:50:14.479Z,11.83
2023-09-27T02:52:44.637Z,11.77
2023-09-27T02:55:13.290Z,10.03
2023-09-27T02:57:43.065Z,12.30
2023-09-27T03:00:11.619Z,11.47
2023-09-27T03:02:39.976Z,12.27
2023-09-27T03:05:10.633Z,11.53
2023-09-27T03:07:40.408Z,12.73
2023-09-27T03:10:11.630Z,10.83
2023-09-27T03:12:40.826Z,11.67
2023-09-27T03:15:12.674Z,13.00
2023-09-27T03:17:42.184Z,10.63
2023-09-27T03:20:16.919Z,12.63
2023-09-27T03:22:46.543Z,11.30
2023-09-27T03:25:15.380Z,14.17
2023-09-27T03:27:43.675Z,13.03
2023-09-27T03:30:12.373Z,14.50
2023-09-27T03:32:40.591Z,12.87
2023-09-27T03:35:09.094Z,17.23
2023-09-27T03:37:37.362Z,13.27
2023-09-27T03:40:14.248Z,13.10
2023-09-27T03:42:43.974Z,13.33
2023-09-27T03:45:12.342Z,12.60
2023-09-27T03:47:41.040Z,12.77
2023-09-27T03:50:09.705Z,16.63
2023-09-27T03:52:37.972Z,14.60
2023-09-27T03:55:08.080Z,13.33
2023-09-27T03:57:36.320Z,13.03
2023-09-27T04:00:08.374Z,14.20
2023-09-27T04:02:36.687Z,14.90
2023-09-27T04:05:05.831Z,15.30
2023-09-27T04:07:34.158Z,13.67
2023-09-27T04:10:02.410Z,16.47
2023-09-27T04:12:32.149Z,14.13
2023-09-27T04:15:00.460Z,14.63
2023-09-27T04:17:29.041Z,14.87
2023-09-27T04:19:57.975Z,15.20
2023-09-27T04:22:26.334Z,15.30
2023-09-27T04:24:55.020Z,13.50
2023-09-27T04:27:23.189Z,14.90
2023-09-27T04:29:52.731Z,14.33
2023-09-27T04:32:21.005Z,14.27
2023-09-27T04:34:49.581Z,14.90
2023-09-27T04:37:17.816Z,16.17
2023-09-27T04:39:46.044Z,13.67
2023-09-27T04:42:14.740Z,15.10
2023-09-27T04:44:42.950Z,14.60
2023-09-27T04:47:12.665Z,17.80
2023-09-27T04:49:40.963Z,14.77
2023-09-27T04:52:09.168Z,12.33
2023-09-27T04:54:37.355Z,12.93
2023-09-27T04:57:05.595Z,16.90
2023-09-27T04:59:33.864Z,17.23
2023-09-27T05:02:02.967Z,13.30
2023-09-27T05:04:32.547Z,13.47
2023-09-27T05:07:00.738Z,17.23
2023-09-27T05:09:29.164Z,13.60
2023-09-27T05:11:57.382Z,14.53
2023-09-27T05:14:25.637Z,13.43
2023-09-27T05:16:53.876Z,12.43
2023-09-27T05:19:22.129Z,14.00
2023-09-27T05:21:51.694Z,16.20
2023-09-27T05:24:19.893Z,14.83
2023-09-27T05:26:48.231Z,14.50
2023-09-27T05:29:16.467Z,16.60
2023-09-27T05:31:46.971Z,16.17
2023-09-27T05:34:15.138Z,19.10
2023-09-27T05:36:43.599Z,14.17
2023-09-27T05:39:13.216Z,14.27
2023-09-27T05:41:41.390Z,16.93
2023-09-27T05:44:09.655Z,16.60
2023-09-27T05:46:38.769Z,17.17
2023-09-27T05:49:10.192Z,14.23
2023-09-27T05:51:38.621Z,15.23
2023-09-27T05:54:08.134Z,15.17
2023-09-27T05:56:39.155Z,15.30
2023-09-27T05:59:10.004Z,15.03
2023-09-27T06:01:38.631Z,17.53
2023-09-27T06:04:07.160Z,19.57
2023-09-27T06:06:37.560Z,17.40
2023-09-27T06:09:06.969Z,15.80
2023-09-27T06:11:35.216Z,22.13
2023-09-27T06:14:06.924Z,22.80
2023-09-27T06:16:35.209Z,21.93
2023-09-27T06:19:05.335Z,20.60
2023-09-27T06:21:34.086Z,20.40
2023-09-27T06:24:02.284Z,22.47
2023-09-27T06:26:30.766Z,29.80
2023-09-27T06:28:59.214Z,23.10
2023-09-27T06:31:30.268Z,25.57
2023-09-27T06:33:58.657Z,25.87
2023-09-27T06:36:30.894Z,24.17
2023-09-27T06:38:59.173Z,24.57
2023-09-27T06:41:27.446Z,29.77
2023-09-27T06:43:56.023Z,26.87
2023-09-27T06:46:27.810Z,28.90
2023-09-27T06:49:00.211Z,25.53
2023-09-27T06:51:28.478Z,24.27
2023-09-27T06:53:56.729Z,31.23
2023-09-27T06:56:25.238Z,29.23
2023-09-27T06:58:53.657Z,24.10
2023-09-27T07:01:23.141Z,27.80
2023-09-27T07:03:51.570Z,23.48
2023-09-27T07:06:21.259Z,24.90
2023-09-27T07:08:53.816Z,26.93
2023-09-27T07:11:22.575Z,29.40
2023-09-27T07:13:50.882Z,26.50
2023-09-27T07:16:27.112Z,26.80
2023-09-27T07:18:55.713Z,25.70
2023-09-27T07:21:26.262Z,33.40
2023-09-27T07:23:55.034Z,24.75
2023-09-27T07:26:23.535Z,27.73
2023-09-27T07:28:52.185Z,26.23
2023-09-27T07:31:21.241Z,28.77
2023-09-27T07:33:53.551Z,31.20
2023-09-27T07:36:23.518Z,31.30
2023-09-27T07:38:53.723Z,29.67
2023-09-27T07:41:22.176Z,35.97
2023-09-27T07:43:51.839Z,28.73
2023-09-27T07:46:20.740Z,33.08
2023-09-27T07:48:48.964Z,29.87
2023-09-27T07:51:19.296Z,33.17
2023-09-27T07:53:47.727Z,33.00
2023-09-27T07:56:22.053Z,31.23
2023-09-27T07:58:53.212Z,27.90
2023-09-27T08:01:22.111Z,37.08
2023-09-27T08:03:53.106Z,31.10
2023-09-27T08:06:23.083Z,28.80
2023-09-27T08:08:53.107Z,32.00
2023-09-27T08:11:23.040Z,31.67
2023-09-27T08:13:51.260Z,26.80
2023-09-27T08:16:19.492Z,30.10
2023-09-27T08:18:51.223Z,34.22
2023-09-27T08:21:20.060Z,29.35
2023-09-27T08:23:48.287Z,32.77
2023-09-27T08:26:16.562Z,29.30
2023-09-27T08:28:46.090Z,30.33
2023-09-27T08:31:14.301Z,32.83
2023-09-27T08:33:42.543Z,32.58
2023-09-27T08:36:10.754Z,30.00
2023-09-27T08:38:39.241Z,31.60
2023-09-27T08:41:07.813Z,28.37
2023-09-27T08:43:36.262Z,29.88
2023-09-27T08:46:06.730Z,32.85
2023-09-27T08:48:38.106Z,29.05
2023-09-27T08:51:07.589Z,31.33
2023-09-27T08:53:39.984Z,30.17
2023-09-27T08:56:09.192Z,32.63
2023-09-27T08:58:38.359Z,32.85
2023-09-27T09:01:09.455Z,35.85
2023-09-27T09:03:39.236Z,35.60
2023-09-27T09:06:12.132Z,33.38
2023-09-27T09:08:54.930Z,33.42
2023-09-27T09:11:24.403Z,29.70
2023-09-27T09:14:01.187Z,27.98
2023-09-27T09:16:41.009Z,30.45
2023-09-27T09:19:41.099Z,27.40
2023-09-27T09:22:12.696Z,29.77
2023-09-27T09:24:43.085Z,26.48
2023-09-27T09:27:14.517Z,23.67
2023-09-27T09:29:48.653Z,23.80
2023-09-27T09:32:19.895Z,29.10
2023-09-27T09:34:48.037Z,27.75
2023-09-27T09:37:20.557Z,25.37
2023-09-27T09:39:49.287Z,24.85
2023-09-27T09:42:31.240Z,25.67
2023-09-27T09:45:06.940Z,24.73
2023-09-27T09:47:37.393Z,25.98
2023-09-27T09:50:07.317Z,25.57
2023-09-27T09:52:36.888Z,28.05
2023-09-27T09:55:17.834Z,25.13
2023-09-27T09:57:54.347Z,24.02
2023-09-27T10:00:27.581Z,24.35
2023-09-27T10:03:04.077Z,23.38
2023-09-27T10:05:37.606Z,23.80
2023-09-27T10:08:06.292Z,24.65
2023-09-27T10:10:35.039Z,23.77
2023-09-27T10:13:04.164Z,28.43
2023-09-27T10:15:34.715Z,23.67
2023-09-27T10:18:21.561Z,24.38
2023-09-27T10:21:05.839Z,20.20
2023-09-27T10:23:37.908Z,23.33
2023-09-27T10:26:18.989Z,23.30
2023-09-27T10:29:07.558Z,24.00
2023-09-27T10:31:37.593Z,13.30
2023-09-27T10:34:06.164Z,20.73
2023-09-27T10:36:36.315Z,17.48
2023-09-27T10:39:07.501Z,16.02
2023-09-27T10:41:44.752Z,18.75
2023-09-27T10:44:13.763Z,18.77
2023-09-27T10:46:45.141Z,19.00
2023-09-27T10:49:14.141Z,20.25
2023-09-27T10:51:52.900Z,17.65
2023-09-27T10:54:25.926Z,19.48
2023-09-27T10:56:56.886Z,13.25
2023-09-27T10:59:28.547Z,12.32
2023-09-27T11:01:56.917Z,12.25
2023-09-27T11:04:25.829Z,14.25
2023-09-27T11:06:57.159Z,13.13
2023-09-27T11:09:25.537Z,12.30
2023-09-27T11:11:55.237Z,16.52
2023-09-27T11:14:33.589Z,11.82
2023-09-27T11:17:16.487Z,9.98
2023-09-27T11:19:44.748Z,12.50
2023-09-27T11:22:14.306Z,10.02
2023-09-27T11:24:42.877Z,10.38
2023-09-27T11:27:12.439Z,10.10
2023-09-27T11:29:40.724Z,9.77
2023-09-27T11:32:09.058Z,11.80
2023-09-27T11:34:37.262Z,10.85
2023-09-27T11:37:06.945Z,11.35
2023-09-27T11:39:51.718Z,9.82
2023-09-27T11:42:24.389Z,10.25
2023-09-27T11:45:04.893Z,6.45
2023-09-27T11:47:33.312Z,9.30
2023-09-27T11:50:01.566Z,11.68
2023-09-27T11:52:29.781Z,13.23
2023-09-27T11:54:57.988Z,10.30
2023-09-27T11:57:27.541Z,13.38
2023-09-27T11:59:55.779Z,8.85
2023-09-27T12:02:28.154Z,11.75
2023-09-27T12:04:59.258Z,10.60
2023-09-27T12:07:28.463Z,10.52
2023-09-27T12:09:56.998Z,9.60
2023-09-27T12:12:25.406Z,9.43
2023-09-27T12:14:56.440Z,10.30
2023-09-27T12:17:24.993Z,9.68
2023-09-27T12:19:54.778Z,10.32
2023-09-27T12:22:23.124Z,10.77
2023-09-27T12:24:51.450Z,8.40
2023-09-27T12:27:19.652Z,7.28
2023-09-27T12:29:47.977Z,9.88
2023-09-27T12:32:17.550Z,8.63
2023-09-27T12:34:45.785Z,10.00
2023-09-27T12:37:13.956Z,7.75
2023-09-27T12:39:42.291Z,11.68
2023-09-27T12:42:10.600Z,4.28
2023-09-27T12:44:38.900Z,5.32
2023-09-27T12:47:07.161Z,5.88
2023-09-27T12:49:36.813Z,6.43
2023-09-27T12:52:05.285Z,4.82
2023-09-27T12:54:33.456Z,5.25
2023-09-27T12:57:01.780Z,6.35
2023-09-27T12:59:30.062Z,6.22
2023-09-27T13:01:58.610Z,5.78
2023-09-27T13:04:26.857Z,7.22
2023-09-27T13:06:57.171Z,5.90
2023-09-27T13:09:25.389Z,6.38
2023-09-27T13:11:53.663Z,5.55
2023-09-27T13:14:21.985Z,7.07
2023-09-27T13:16:50.226Z,6.38
2023-09-27T13:19:18.649Z,4.72
2023-09-27T13:21:47.169Z,5.70
2023-09-27T13:24:16.806Z,5.40
2023-09-27T13:26:45.208Z,6.50
2023-09-27T13:29:13.506Z,5.60
2023-09-27T13:31:41.815Z,5.45
2023-09-27T13:34:11.968Z,4.07
2023-09-27T13:36:41.527Z,4.47
2023-09-27T13:39:15.471Z,5.38
2023-09-27T13:41:47.318Z,5.53
2023-09-27T13:44:16.079Z,6.13
2023-09-27T13:46:45.400Z,7.22
2023-09-27T13:49:13.616Z,7.55
2023-09-27T13:51:42.839Z,5.57
2023-09-27T13:54:12.975Z,5.93
2023-09-27T13:56:41.505Z,4.30
2023-09-27T13:59:11.073Z,3.75
